• Join FlightAware (Why Join?)
  • Login
  • US Flag 
06:50PM EDT


 

Airport Tracker/Info


-or-


 

Live Flight TrackerFlight Track Log ✈ N77HE ✈ 19-Jul-2013 ✈ KGBD - KEWK

Flight Track Log - Related Links

Times and Time Zones

All times are in EDT time to prevent confusion due to time zone crossing. See the N77HE flight status page for this flight to view local times or setup timezone preferences in your user account.

Time Position Orientation Groundspeed Altitude Reporting Facility
EDT Latitude Longitude Course Direction KTS MPH feet Rate Location/Type
03:31PM 38.3069 -98.6019 105° East 169 194 7,100  Level Kansas City Center
03:32PM 38.2917 -98.5289 105° East 207 238 7,000  Descending Kansas City Center
03:34PM 38.2750 -98.4589 107° East 206 237 7,100  Climbing Kansas City Center
03:35PM 38.2594 -98.3867 105° East 210 242 7,100  Level Kansas City Center
03:35PM 38.2478 -98.3317 105° East 211 243 7,100 60 Level Kansas City Center
03:36PM 38.2694 -98.4338 103° East  Level Estimated
03:36PM 38.2403 -98.2717 99° East 210 242 7,200  Level Kansas City Center
03:37PM 38.2272 -98.1936 102° East 207 238 6,900 -420 Descending Kansas City Center
03:38PM 38.2203 -98.1539 103° East 212 244 6,600 -420 Descending Kansas City Center
03:38PM 38.2136 -98.1158 103° East 223 257 6,500 -300 Descending Kansas City Center
03:39PM 38.2086 -98.0769 99° East 219 252 6,300 -600 Descending Kansas City Center
03:39PM 38.2028 -98.0431 102° East 206 237 5,900 -780 Descending Kansas City Center
03:40PM 38.1978 -98.0097 101° East 198 228 5,500 -660 Descending Kansas City Center
03:40PM 38.1922 -97.9728 101° East 189 217 5,200 -300 Descending Kansas City Center
03:41PM 38.1825 -97.9131 102° East 190 219 5,100 -180 Descending Kansas City Center
03:42PM 38.1792 -97.8758 96° East 193 222 5,000  Descending Kansas City Center
03:42PM 38.1728 -97.8319 100° East 198 228 5,100  Climbing Kansas City Center
03:43PM 38.1686 -97.8072 102° East 196 226 5,000 -420 Descending Kansas City Center
03:44PM 38.1472 -97.7239 108° East 208 239 4,500 -420 Descending Kansas City Center
03:45PM 38.1317 -97.6567 106° East 202 232 4,200 -240 Descending Kansas City Center
03:46PM 38.1147 -97.5914 108° East 184 212 4,100 -120 Descending Kansas City Center
03:46PM 38.1094 -97.5622 103° East 185 213 4,100  Level Kansas City Center
03:47PM 38.0992 -97.5256 110° East 193 222 4,100  Level Kansas City Center
03:47PM 38.0947 -97.4956 101° East 195 224 4,100 -120 Level Kansas City Center
03:48PM 38.0869 -97.4606 106° East 195 224 4,000 -240 Descending Kansas City Center